Terminal Aerodrome Forecast
Issued by NWS

Home | Current Version | Previous Version | Text Only | Print | Product List | Glossary On
Versions: 1 2 3 4 5 6 7 8 9 10 11 12 13 14 15 16 17 18 19 20
000
FTUS43 KDLH 181700
TAFHYR
TAF
KHYR 181733Z 1818/1918 VRB03KT P6SM BKN014
      TEMPO 1822/1902 SCT014
     FM190600 VRB02KT 6SM BR OVC014=

USA.gov is the U.S. government's official web portal to all federal, state and local government web resources and services.